| time (UTC) | temp F | wind direction | speed knots | gust knots | rain 1hr in | rain 24hr in | rain mn in | humidity % | barometer mb |
| 20260906081549 | 70 | 0 | 0.0 | 0.0 | 0.00 | 0.72 | 0.01 | 98 | 1011.9 |
| 20260906080036 | 70 | 0 | 0.0 | 0.0 | 0.00 | 0.72 | 0.01 | 98 | 1011.9 |
| 20260906074536 | 70 | 0 | 0.0 | 0.0 | 0.00 | 0.72 | 0.01 | 98 | 1011.9 |
| 20260906073047 | 70 | 0 | 0.0 | 0.0 | 0.00 | 0.72 | 0.01 | 98 | 1011.9 |
| 20260906071536 | 70 | 0 | 0.0 | 0.9 | 0.00 | 0.72 | 0.01 | 98 | 1011.9 |
| 20260906070039 | 70 | 0 | 0.0 | 1.7 | 0.00 | 0.72 | 0.01 | 98 | 1011.9 |
| 20260906064534 | 70 | 0 | 0.0 | 0.0 | 0.00 | 0.72 | 0.01 | 98 | 1012.1 |
| 20260906063035 | 70 | 0 | 0.0 | 0.0 | 0.00 | 0.72 | 0.01 | 98 | 1012.3 |
| 20260906061534 | 70 | 0 | 0.0 | 0.9 | 0.01 | 0.72 | 0.01 | 98 | 1012.2 |
| 20260906060035 | 70 | 0 | 0.0 | 1.7 | 0.01 | 0.72 | 0.01 | 98 | 1012.3 |
| 20260906054533 | 70 | 0 | 0.0 | 0.0 | 0.01 | 0.72 | 0.01 | 98 | 1012.5 |
| 20260906053038 | 70 | 0 | 0.0 | 0.0 | 0.01 | 0.72 | 0.01 | 98 | 1012.7 |
| 20260906051534 | 70 | 0 | 0.0 | 0.0 | 0.00 | 0.71 | 0.00 | 98 | 1012.8 |
| 20260906050050 | 70 | 0 | 0.0 | 0.0 | 0.00 | 0.71 | 0.00 | 98 | 1013.0 |
| 20260906044535 | 70 | 0 | 0.0 | 0.9 | 0.00 | 0.71 | 0.00 | 98 | 1013.1 |
| 20260906043042 | 70 | 0 | 0.0 | 0.0 | 0.00 | 0.71 | 0.00 | 97 | 1012.8 |
| 20260906041535 | 70 | 0 | 0.0 | 0.0 | 0.00 | 0.71 | 0.00 | 97 | 1012.5 |
| 20260906040043 | 70 | 0 | 0.0 | 0.0 | 0.00 | 0.71 | 0.00 | 98 | 1012.4 |
| 20260906034535 | 70 | 34 | 0.0 | 1.7 | 0.00 | 0.71 | 0.71 | 98 | 1012.3 |
| 20260906033032 | 70 | 34 | 0.9 | 2.6 | 0.00 | 0.71 | 0.71 | 97 | 1012.2 |
| 20260906031537 | 70 | 0 | 0.0 | 1.7 | 0.00 | 0.71 | 0.71 | 97 | 1012.4 |
| 20260906030033 | 70 | 0 | 0.0 | 0.0 | 0.00 | 0.71 | 0.71 | 97 | 1012.6 |
| 20260906024536 | 70 | 0 | 0.0 | 0.9 | 0.00 | 0.71 | 0.71 | 97 | 1012.9 |
| 20260906023049 | 70 | 0 | 0.0 | 0.0 | 0.00 | 0.71 | 0.71 | 97 | 1012.9 |
| 20260906021535 | 70 | 0 | 0.0 | 0.0 | 0.00 | 0.71 | 0.71 | 97 | 1013.2 |
| 20260906020036 | 70 | 0 | 0.0 | 0.9 | 0.00 | 0.71 | 0.71 | 96 | 1013.1 |
| 20260906014543 | 70 | 0 | 0.0 | 0.9 | 0.01 | 0.71 | 0.71 | 96 | 1013.0 |
| 20260906013034 | 69 | 0 | 0.0 | 1.7 | 0.11 | 0.71 | 0.71 | 95 | 1013.1 |
| 20260906011544 | 69 | 5 | 0.0 | 2.6 | 0.51 | 0.71 | 0.71 | 95 | 1012.8 |
| 20260906010036 | 69 | 0 | 0.0 | 3.5 | 0.71 | 0.71 | 0.71 | 94 | 1012.2 |
| 20260906004535 | 69 | 193 | 0.9 | 3.5 | 0.70 | 0.70 | 0.70 | 94 | 1012.8 |
| 20260906003036 | 69 | 211 | 0.0 | 5.2 | 0.58 | 0.58 | 0.58 | 91 | 1012.6 |
| 20260906001534 | 72 | 38 | 4.3 | 19.1 | 0.18 | 0.18 | 0.18 | 81 | 1014.1 |
| 20260906000038 | 87 | 109 | 0.9 | 3.5 | 0.00 | 0.00 | 0.00 | 62 | 1013.0 |
| 20260905234545 | 88 | 65 | 0.0 | 3.5 | 0.00 | 0.00 | 0.00 | 70 | 1011.6 |
| 20260905233034 | 89 | 194 | 1.7 | 5.2 | 0.00 | 0.00 | 0.00 | 68 | 1010.3 |
| 20260905231535 | 90 | 227 | 0.9 | 5.2 | 0.00 | 0.00 | 0.00 | 66 | 1010.5 |
| 20260905230042 | 91 | 185 | 1.7 | 5.2 | 0.00 | 0.00 | 0.00 | 66 | 1010.8 |
| 20260905224536 | 91 | 208 | 1.7 | 6.1 | 0.00 | 0.00 | 0.00 | 65 | 1010.6 |
| 20260905223036 | 92 | 207 | 0.9 | 3.5 | 0.00 | 0.00 | 0.00 | 63 | 1010.6 |
| 20260905221533 | 93 | 219 | 0.9 | 5.2 | 0.00 | 0.00 | 0.00 | 59 | 1010.7 |
| 20260905220035 | 98 | 183 | 1.7 | 3.5 | 0.00 | 0.00 | 0.00 | 50 | 1010.3 |
| 20260905214538 | 100 | 0 | 0.0 | 2.6 | 0.00 | 0.00 | 0.00 | 45 | 1010.1 |
| 20260905213037 | 100 | 0 | 0.0 | 2.6 | 0.00 | 0.00 | 0.00 | 42 | 1010.1 |
| 20260905211535 | 100 | 200 | 0.9 | 1.7 | 0.00 | 0.00 | 0.00 | 41 | 1010.2 |
| 20260905210034 | 100 | 0 | 0.0 | 1.7 | 0.00 | 0.00 | 0.00 | 43 | 1010.5 |
| 20260905204533 | 100 | 0 | 0.0 | 2.6 | 0.00 | 0.00 | 0.00 | 42 | 1010.6 |
| 20260905203031 | 100 | 271 | 0.0 | 4.3 | 0.00 | 0.00 | 0.00 | 43 | 1010.8 |
| 20260905201538 | 100 | 5 | 0.0 | 2.6 | 0.00 | 0.00 | 0.00 | 43 | 1011.0 |
| 20260905200046 | 99 | 190 | 0.9 | 3.5 | 0.00 | 0.00 | 0.00 | 44 | 1011.2 |
| 20260905194533 | 98 | 197 | 0.0 | 3.5 | 0.00 | 0.00 | 0.00 | 47 | 1011.6 |
| 20260905193035 | 99 | 273 | 0.9 | 3.5 | 0.00 | 0.00 | 0.00 | 46 | 1011.8 |
| 20260905191538 | 97 | 340 | 0.9 | 2.6 | 0.00 | 0.00 | 0.00 | 48 | 1012.0 |
| 20260905190045 | 97 | 159 | 0.9 | 2.6 | 0.00 | 0.00 | 0.00 | 48 | 1011.8 |
| 20260905184550 | 96 | 0 | 0.0 | 2.6 | 0.00 | 0.00 | 0.00 | 50 | 1012.0 |
| 20260905183042 | 96 | 0 | 0.0 | 2.6 | 0.00 | 0.00 | 0.00 | 52 | 1012.3 |
| 20260905181540 | 96 | 0 | 0.0 | 2.6 | 0.00 | 0.00 | 0.00 | 48 | 1012.8 |
| 20260905180034 | 96 | 252 | 0.0 | 2.6 | 0.00 | 0.00 | 0.00 | 53 | 1012.7 |
| 20260905174535 | 94 | 355 | 0.9 | 2.6 | 0.00 | 0.00 | 0.00 | 51 | 1012.8 |
| 20260905173035 | 94 | 0 | 0.0 | 4.3 | 0.00 | 0.00 | 0.00 | 53 | 1013.1 |
| 20260905171538 | 93 | 182 | 0.0 | 4.3 | 0.00 | 0.00 | 0.00 | 57 | 1013.3 |
| 20260905170032 | 92 | 325 | 0.9 | 2.6 | 0.00 | 0.00 | 0.00 | 57 | 1013.5 |
| 20260905164538 | 91 | 0 | 0.9 | 5.2 | 0.00 | 0.00 | 0.00 | 57 | 1013.7 |
| 20260905163035 | 91 | 0 | 0.0 | 2.6 | 0.00 | 0.00 | 0.00 | 59 | 1013.9 |
| 20260905161536 | 90 | 56 | 0.9 | 3.5 | 0.00 | 0.00 | 0.00 | 59 | 1014.1 |
| 20260905160036 | 90 | 0 | 0.0 | 3.5 | 0.00 | 0.00 | 0.00 | 61 | 1014.1 |
| 20260905154537 | 89 | 0 | 0.9 | 3.5 | 0.00 | 0.00 | 0.00 | 62 | 1014.1 |
| 20260905153050 | 88 | 333 | 0.9 | 5.2 | 0.00 | 0.00 | 0.00 | 66 | 1014.2 |
| 20260905151539 | 87 | 0 | 0.0 | 0.0 | 0.00 | 0.00 | 0.00 | 68 | 1014.3 |
| 20260905150039 | 86 | 0 | 0.0 | 0.0 | 0.00 | 0.00 | 0.00 | 71 | 1014.4 |
| 20260905144534 | 85 | 0 | 0.0 | 3.5 | 0.00 | 0.00 | 0.00 | 73 | 1014.4 |
| 20260905143038 | 84 | 0 | 0.0 | 0.0 | 0.00 | 0.00 | 0.00 | 75 | 1014.6 |
| 20260905141534 | 83 | 0 | 0.0 | 0.0 | 0.00 | 0.00 | 0.00 | 81 | 1014.6 |
| 20260905140036 | 81 | 0 | 0.0 | 0.0 | 0.00 | 0.00 | 0.00 | 83 | 1014.5 |
| 20260905134534 | 80 | 0 | 0.0 | 0.0 | 0.00 | 0.00 | 0.00 | 87 | 1014.7 |
| 20260905133035 | 78 | 0 | 0.0 | 0.0 | 0.00 | 0.00 | 0.00 | 93 | 1014.6 |
| 20260905131551 | 76 | 0 | 0.0 | 0.0 | 0.00 | 0.00 | 0.00 | 95 | 1014.8 |
| 20260905130040 | 75 | 0 | 0.0 | 0.0 | 0.00 | 0.00 | 0.00 | 97 | 1014.8 |
| 20260905124536 | 74 | 0 | 0.0 | 0.0 | 0.00 | 0.00 | 0.00 | 97 | 1014.8 |
| 20260905123037 | 73 | 0 | 0.0 | 0.0 | 0.00 | 0.00 | 0.00 | 97 | 1014.9 |
| 20260905121537 | 73 | 0 | 0.0 | 0.0 | 0.00 | 0.00 | 0.00 | 97 | 1014.6 |
| 20260905120039 | 72 | 0 | 0.0 | 0.0 | 0.00 | 0.00 | 0.00 | 97 | 1014.6 |
| 20260905114536 | 72 | 0 | 0.0 | 0.0 | 0.00 | 0.00 | 0.00 | 97 | 1014.7 |
| 20260905113035 | 72 | 0 | 0.0 | 0.0 | 0.00 | 0.00 | 0.00 | 96 | 1014.6 |
| 20260905111557 | 72 | 0 | 0.0 | 0.0 | 0.00 | 0.00 | 0.00 | 96 | 1014.4 |
| 20260905110035 | 72 | 0 | 0.0 | 0.0 | 0.00 | 0.00 | 0.00 | 96 | 1014.3 |
| 20260905104536 | 72 | 0 | 0.0 | 0.0 | 0.00 | 0.00 | 0.00 | 96 | 1014.1 |
| 20260905103034 | 72 | 0 | 0.0 | 0.0 | 0.00 | 0.00 | 0.00 | 96 | 1014.0 |
| 20260905101535 | 72 | 0 | 0.0 | 0.0 | 0.00 | 0.00 | 0.00 | 96 | 1014.1 |
| 20260905100036 | 72 | 0 | 0.0 | 0.0 | 0.00 | 0.00 | 0.00 | 96 | 1014.1 |
| 20260905094536 | 73 | 0 | 0.0 | 0.0 | 0.00 | 0.00 | 0.00 | 96 | 1014.0 |
| 20260905093036 | 73 | 0 | 0.0 | 0.0 | 0.00 | 0.00 | 0.00 | 96 | 1014.0 |
| 20260905091534 | 73 | 0 | 0.0 | 0.0 | 0.00 | 0.00 | 0.00 | 96 | 1014.0 |
| 20260905090035 | 73 | 0 | 0.0 | 0.0 | 0.00 | 0.00 | 0.00 | 95 | 1014.0 |
| 20260905084536 | 73 | 0 | 0.0 | 0.0 | 0.00 | 0.00 | 0.00 | 95 | 1014.0 |
| 20260905083032 | 73 | 0 | 0.0 | 0.0 | 0.00 | 0.00 | 0.00 | 95 | 1013.9 |